615VGS Twitter

615VGS Facebook

Staff Login


Staff who require login details should contact the MCO.

Join 615 VGS

 

 

615 VGS Partner

bigatmo

Course Photos 2013

Upcoming Events

No events

KY Aviation Wx

[source: ADDS]
METAR
EGKB 201020Z 30007KT 260V340 9999 FEW030 14/06 Q1017 =
TAF
TAF EGKB 200802Z 2009/2018 30006KT 9999 FEW040 =
SR / SS: 04:54 / 19:11 UTC (Sunrise/Sunset 2014-08-20)